Time;durP1;ratioP1;P1;durP2;ratioP2;P2;SDS_P1;SDS_P2;PMS_P1;PMS_P2;Temp;Humidity;BMP_temperature;BMP_pressure;BME280_temperature;BME280_humidity;BME280_pressure;Samples;Min_cycle;Max_cycle;Signal;HPM_P1;HPM_P2
2022/05/06 00:01:30;;;;;;;23.27;15.13;;;;;;;9.07;85.19;98282.31;10336040;28;20495;-59
2022/05/06 00:06:29;;;;;;;19.80;14.25;;;;;;;8.99;85.41;98283.91;10336468;28;20060;-59
2022/05/06 00:11:28;;;;;;;24.52;16.75;;;;;;;8.85;85.73;98299.25;10335278;28;20110;-59
2022/05/06 00:16:28;;;;;;;22.65;17.17;;;;;;;8.76;86.05;98299.97;10335278;28;20040;-59
2022/05/06 00:21:27;;;;;;;22.80;16.73;;;;;;;8.78;86.18;98305.16;10336201;28;20071;-59
2022/05/06 00:26:26;;;;;;;23.80;16.20;;;;;;;8.80;86.15;98306.06;10335448;28;20128;-59
2022/05/06 00:31:25;;;;;;;22.55;15.65;;;;;;;8.79;85.93;98305.22;10334227;28;20055;-59
2022/05/06 00:36:24;;;;;;;28.40;18.40;;;;;;;8.75;86.10;98311.19;10335097;28;20488;-59
2022/05/06 00:41:23;;;;;;;21.58;14.77;;;;;;;8.71;85.97;98306.78;10334424;28;20520;-59
2022/05/06 00:46:22;;;;;;;20.83;14.90;;;;;;;8.65;86.31;98312.75;10335157;28;20068;-59
2022/05/06 00:51:22;;;;;;;21.02;14.48;;;;;;;8.65;86.12;98317.06;10334307;28;20065;-59
2022/05/06 00:56:24;;;;;;;;;;;;;;;8.63;86.26;98305.81;10334060;28;20061;-59
2022/05/06 01:01:23;;;;;;;22.83;14.75;;;;;;;8.60;86.51;98296.28;10334518;28;19951;-59
2022/05/06 01:06:23;;;;;;;21.95;15.52;;;;;;;8.62;86.67;98301.47;10333905;28;20067;-59
2022/05/06 01:11:22;;;;;;;24.45;16.90;;;;;;;8.58;86.86;98297.13;10334027;28;20061;-59
2022/05/06 01:16:21;;;;;;;28.73;19.58;;;;;;;8.40;88.10;98308.91;10333184;28;20068;-59
2022/05/06 01:21:26;;;;;;;31.33;19.73;;;;;;;8.38;88.06;98299.38;10333835;28;20033;-59
2022/05/06 01:26:56;;;;;;;26.50;17.52;;;;;;;8.39;87.33;98294.25;10332832;28;20075;-59
2022/05/06 01:31:55;;;;;;;;;;;;;;;8.40;87.17;98297.69;10333092;28;20092;-59
2022/05/06 01:36:57;;;;;;;22.60;14.35;;;;;;;8.37;87.11;98288.16;10332331;28;19971;-59
2022/05/06 01:42:03;;;;;;;20.27;13.82;;;;;;;8.34;87.53;98293.31;10333213;28;20076;-59
2022/05/06 01:47:05;;;;;;;19.25;14.43;;;;;;;8.33;87.62;98296.72;10331988;28;20072;-59
2022/05/06 01:52:07;;;;;;;25.85;17.15;;;;;;;8.31;87.80;98298.41;10332002;28;20084;-59
2022/05/06 01:57:06;;;;;;;28.08;16.92;;;;;;;8.33;87.55;98299.31;10332632;28;20132;-59
2022/05/06 02:02:05;;;;;;;24.95;16.88;;;;;;;8.24;88.42;98300.00;10332007;28;20069;-59
2022/05/06 02:07:04;;;;;;;27.23;17.73;;;;;;;8.24;88.04;98299.16;10331652;28;20061;-59
2022/05/06 02:12:03;;;;;;;27.77;16.48;;;;;;;8.20;88.28;98308.56;10331888;28;20061;-59
2022/05/06 02:17:02;;;;;;;;;;;;;;;8.19;88.13;98318.88;10332114;28;20589;-59
2022/05/06 02:22:01;;;;;;;25.08;16.40;;;;;;;8.15;88.57;98312.78;10331534;28;20408;-59
2022/05/06 02:27:00;;;;;;;31.48;18.67;;;;;;;8.12;88.03;98302.38;10332221;28;20061;-59
2022/05/06 02:37:17;;;;;;;23.30;14.98;;;;;;;8.03;88.52;98313.44;10330967;28;20069;-59
2022/05/06 02:42:16;;;;;;;36.55;20.67;;;;;;;7.99;88.57;98306.47;10337137;28;20045;-59
2022/05/06 02:47:15;;;;;;;33.03;21.52;;;;;;;7.86;89.06;98304.50;10338489;28;20061;-59
2022/05/06 02:52:14;;;;;;;;;;;;;;;7.92;89.37;98311.50;10339716;28;20095;-59
2022/05/06 02:57:14;;;;;;;28.35;19.05;;;;;;;7.85;89.10;98313.13;10338790;28;19919;-59
2022/05/06 03:02:13;;;;;;;25.65;17.45;;;;;;;7.78;89.53;98311.22;10338494;28;20494;-59
2022/05/06 03:07:12;;;;;;;24.10;16.92;;;;;;;7.78;89.32;98317.28;10338691;28;20072;-59
2022/05/06 03:12:11;;;;;;;28.30;18.38;;;;;;;7.79;89.32;98318.16;10337854;28;20112;-59
2022/05/06 03:17:09;;;;;;;26.30;17.60;;;;;;;7.63;89.98;98310.09;10336959;28;20096;-59
2022/05/06 03:22:08;;;;;;;22.65;15.43;;;;;;;7.69;90.38;98327.44;10337638;28;20033;-59
2022/05/06 03:27:59;;;;;;;24.42;15.05;;;;;;;7.65;90.16;98311.00;10337573;28;20064;-59
2022/05/06 03:32:31;;;;;;;21.83;14.68;;;;;;;7.80;89.82;98335.38;10337246;28;20084;-59
2022/05/06 03:37:30;;;;;;;23.80;16.25;;;;;;;7.77;89.94;98330.16;10337191;28;20064;-59
2022/05/06 03:42:29;;;;;;;25.63;16.83;;;;;;;7.93;89.68;98337.38;10337507;28;20080;-59
2022/05/06 03:47:28;;;;;;;24.90;17.77;;;;;;;8.00;90.03;98344.41;10336748;28;20033;-59
2022/05/06 03:52:27;;;;;;;25.08;17.67;;;;;;;8.04;90.26;98346.19;10336426;28;20061;-59
2022/05/06 03:57:26;;;;;;;27.80;17.42;;;;;;;8.12;89.75;98348.06;10336042;28;20057;-59
2022/05/06 04:02:25;;;;;;;25.60;17.73;;;;;;;8.16;89.58;98355.91;10336676;28;20040;-59
2022/05/06 04:07:24;;;;;;;24.55;16.10;;;;;;;8.16;89.78;98350.72;10335503;28;20041;-59
2022/05/06 04:12:23;;;;;;;23.05;14.63;;;;;;;8.25;88.97;98365.53;10335328;28;20067;-59
2022/05/06 04:17:22;;;;;;;23.88;15.75;;;;;;;8.31;89.26;98352.69;10336763;28;20478;-59
2022/05/06 04:27:45;;;;;;;24.30;16.00;;;;;;;8.56;88.81;98373.81;10336324;28;20061;-59
2022/05/06 04:32:45;;;;;;;26.13;18.88;;;;;;;8.63;88.27;98373.94;10335285;28;20080;-59
2022/05/06 04:37:44;;;;;;;44.58;32.80;;;;;;;8.65;88.41;98366.22;10309639;28;20077;-59
2022/05/06 04:42:45;;;;;;;30.13;21.33;;;;;;;8.58;88.57;98372.16;10335169;28;20073;-59
2022/05/06 04:47:44;;;;;;;25.02;18.50;;;;;;;8.65;88.12;98376.56;10334474;28;20068;-59
2022/05/06 04:52:43;;;;;;;26.33;17.58;;;;;;;8.82;87.92;98380.28;10334207;28;20076;-59
2022/05/06 04:57:41;;;;;;;24.75;17.55;;;;;;;9.03;87.44;98371.13;10333699;28;20155;-59
2022/05/06 05:02:40;;;;;;;31.13;20.10;;;;;;;9.12;87.35;98373.84;10333817;28;20037;-59
2022/05/06 05:07:40;;;;;;;30.65;20.75;;;;;;;9.20;87.29;98376.53;10333462;28;20053;-59
2022/05/06 05:12:39;;;;;;;26.35;18.73;;;;;;;9.48;87.22;98380.41;10333597;28;20483;-59
2022/05/06 05:17:38;;;;;;;28.73;19.83;;;;;;;9.75;86.55;98380.78;10333521;28;20504;-58
2022/05/06 05:22:38;;;;;;;24.75;19.27;;;;;;;10.03;85.47;98383.69;10333100;28;20044;-59
2022/05/06 05:27:38;;;;;;;25.50;18.02;;;;;;;10.35;85.49;98385.75;10332750;28;20571;-59
2022/05/06 05:32:39;;;;;;;28.55;19.75;;;;;;;10.70;84.34;98377.44;10333149;28;20129;-59
2022/05/06 05:37:38;;;;;;;27.13;20.17;;;;;;;10.99;83.31;98375.09;10332009;28;20080;-60
2022/05/06 05:42:37;;;;;;;37.67;24.50;;;;;;;11.22;82.24;98381.31;10332631;28;20112;-59
2022/05/06 05:52:53;;;;;;;34.17;23.00;;;;;;;11.49;80.65;98373.69;10350642;28;20056;-59
2022/05/06 05:57:52;;;;;;;29.05;20.95;;;;;;;11.64;79.14;98386.72;10372766;28;20064;-59
2022/05/06 06:02:51;;;;;;;66.32;38.80;;;;;;;11.27;80.54;98383.06;10372455;28;20029;-59
2022/05/06 06:07:50;;;;;;;32.67;23.30;;;;;;;11.22;81.18;98393.41;10372377;28;20559;-60
2022/05/06 06:12:49;;;;;;;27.65;21.75;;;;;;;11.13;81.14;98393.38;10331631;28;20416;-59
2022/05/06 06:17:48;;;;;;;;;;;;;;;11.34;80.81;98393.53;10338772;28;20120;-60
2022/05/06 06:22:47;;;;;;;24.63;19.65;;;;;;;11.43;80.93;98400.47;10340163;28;20014;-60
2022/05/06 06:27:46;;;;;;;25.85;19.52;;;;;;;11.51;80.73;98405.75;10340064;28;20034;-60
2022/05/06 06:32:45;;;;;;;26.23;21.38;;;;;;;11.72;80.15;98392.84;10339554;28;20081;-60
2022/05/06 06:37:44;;;;;;;26.20;20.00;;;;;;;11.88;79.77;98379.06;10339256;28;20044;-60
2022/05/06 06:42:44;;;;;;;26.58;20.30;;;;;;;12.00;78.96;98380.84;10340132;28;20084;-60
2022/05/06 06:47:44;;;;;;;25.10;19.27;;;;;;;12.09;78.74;98380.88;10338593;28;20057;-60
2022/05/06 06:52:43;;;;;;;;;;;;;;;12.37;78.11;98383.56;10339919;28;20072;-60
2022/05/06 06:57:41;;;;;;;22.38;19.10;;;;;;;12.51;77.41;98376.66;10322101;28;19956;-60
2022/05/06 07:02:40;;;;;;;23.92;18.85;;;;;;;12.73;76.87;98368.84;10299316;28;20152;-60
2022/05/06 07:12:57;;;;;;;23.10;18.05;;;;;;;13.35;75.26;98374.84;10338784;28;20065;-60
2022/05/06 07:17:56;;;;;;;26.80;21.33;;;;;;;13.62;74.21;98373.09;10337936;28;20038;-60
2022/05/06 07:22:55;;;;;;;29.98;24.98;;;;;;;13.93;72.85;98369.47;10340250;28;20120;-60
2022/05/06 07:27:54;;;;;;;30.23;23.80;;;;;;;14.35;69.93;98361.41;10339085;28;20034;-59
2022/05/06 07:32:53;;;;;;;27.02;23.35;;;;;;;14.73;69.60;98358.59;10339241;28;20045;-59
2022/05/06 07:37:52;;;;;;;27.00;20.92;;;;;;;15.33;69.29;98352.78;10339517;28;20121;-57
2022/05/06 07:42:51;;;;;;;26.05;20.98;;;;;;;15.89;66.97;98355.66;10338855;28;20033;-57
2022/05/06 07:47:50;;;;;;;22.63;16.15;;;;;;;16.03;63.51;98350.25;10339161;28;20080;-58
2022/05/06 07:52:50;;;;;;;;;;;;;;;16.28;61.55;98358.66;10339454;28;20112;-58
2022/05/06 07:57:49;;;;;;;22.60;16.80;;;;;;;16.54;60.49;98362.63;10338897;28;19948;-58
2022/05/06 08:08:06;;;;;;;15.05;11.88;;;;;;;16.79;60.27;98360.47;10336465;28;20064;-58
2022/05/06 08:13:06;;;;;;;16.58;13.20;;;;;;;16.93;59.82;98363.75;10334746;28;20068;-58
2022/05/06 08:18:05;;;;;;;15.07;11.65;;;;;;;17.12;59.73;98365.19;10332450;28;20553;-58
2022/05/06 08:23:05;;;;;;;9.68;8.68;;;;;;;17.43;56.75;98363.78;10357014;28;20065;-58
2022/05/06 08:28:04;;;;;;;11.07;8.10;;;;;;;17.73;56.19;98363.19;10330914;28;20065;-58
2022/05/06 08:33:03;;;;;;;11.25;7.93;;;;;;;18.16;54.92;98358.81;10334528;28;20076;-58
2022/05/06 08:38:02;;;;;;;11.63;8.80;;;;;;;18.57;54.32;98346.47;10333182;28;20040;-59
2022/05/06 08:43:02;;;;;;;11.45;8.80;;;;;;;18.87;52.55;98338.78;10334911;28;20432;-59
2022/05/06 08:53:24;;;;;;;11.13;9.73;;;;;;;19.27;50.84;98351.75;10294894;28;20073;-58
2022/05/06 08:58:25;;;;;;;12.88;9.23;;;;;;;19.16;48.57;98345.94;10293983;28;20563;-58
2022/05/06 09:03:24;;;;;;;12.85;9.70;;;;;;;19.30;48.97;98335.03;10293570;28;20078;-58
2022/05/06 09:08:35;;;;;;;11.85;9.48;;;;;;;19.69;49.10;98334.88;10297783;28;20026;-59
2022/05/06 09:13:38;;;;;;;11.90;9.32;;;;;;;20.01;49.54;98332.16;10334582;28;20068;-58
2022/05/06 09:18:37;;;;;;;12.27;9.88;;;;;;;20.38;47.73;98330.19;10329697;28;20072;-58
2022/05/06 09:23:37;;;;;;;12.60;10.75;;;;;;;20.62;48.65;98313.59;10329916;28;20029;-58
2022/05/06 09:28:35;;;;;;;12.57;11.00;;;;;;;21.06;49.00;98323.59;10330493;28;20056;-59
2022/05/06 09:33:42;;;;;;;14.52;10.52;;;;;;;21.39;48.78;98321.56;10332287;28;20030;-58
2022/05/06 09:38:59;;;;;;;11.05;8.55;;;;;;;21.45;44.63;98318.72;10332535;28;20068;-59
2022/05/06 09:44:03;;;;;;;8.35;6.65;;;;;;;21.13;45.33;98322.47;10332474;28;20061;-58
2022/05/06 09:49:04;;;;;;;8.65;7.72;;;;;;;20.65;45.93;98313.47;10332473;28;20128;-58
2022/05/06 09:54:05;;;;;;;10.40;7.78;;;;;;;20.55;46.42;98280.44;10332232;28;20072;-58
2022/05/06 09:59:04;;;;;;;12.02;9.77;;;;;;;20.90;45.63;98312.69;10333054;28;20073;-58
2022/05/06 10:04:03;;;;;;;9.55;8.20;;;;;;;21.00;45.76;98300.03;10331595;28;20037;-59
2022/05/06 10:09:02;;;;;;;8.23;6.85;;;;;;;21.17;44.66;98284.47;10332047;28;20030;-58
2022/05/06 10:14:03;;;;;;;7.80;5.90;;;;;;;21.20;43.73;98288.78;10332501;28;20061;-58
2022/05/06 10:19:03;;;;;;;7.78;6.53;;;;;;;20.63;45.18;98290.72;10332356;28;20572;-58
2022/05/06 10:24:14;;;;;;;10.00;7.25;;;;;;;20.97;45.92;98287.81;10331598;28;20069;-59
2022/05/06 10:35:08;;;;;;;7.15;5.97;;;;;;;21.25;40.64;98274.53;10332007;28;20069;-58
2022/05/06 10:40:25;;;;;;;8.65;6.75;;;;;;;21.59;41.19;98273.28;10331150;28;20088;-58
2022/05/06 10:45:33;;;;;;;7.68;5.95;;;;;;;21.68;37.74;98264.16;10331156;28;20060;-58
2022/05/06 10:50:38;;;;;;;8.65;6.68;;;;;;;21.72;37.96;98252.56;10332069;28;20935;-58
2022/05/06 10:55:37;;;;;;;6.20;5.30;;;;;;;21.69;37.19;98260.63;10331072;28;20077;-58
2022/05/06 11:00:39;;;;;;;8.20;5.20;;;;;;;21.81;37.82;98241.66;10332146;28;20112;-58
2022/05/06 11:05:38;;;;;;;7.22;5.25;;;;;;;21.69;36.77;98234.22;10339712;28;20464;-58
2022/05/06 11:10:37;;;;;;;6.30;4.40;;;;;;;21.86;36.13;98229.13;10337982;28;20068;-58
2022/05/06 11:15:37;;;;;;;5.25;4.50;;;;;;;21.67;35.42;98222.84;10338009;28;20037;-59
2022/05/06 11:20:38;;;;;;;5.53;4.30;;;;;;;21.44;34.82;98214.00;10338409;28;20077;-58
2022/05/06 11:25:45;;;;;;;7.43;5.57;;;;;;;21.61;36.38;98220.41;10337665;28;20069;-58
2022/05/06 11:30:46;;;;;;;5.55;4.20;;;;;;;21.89;35.81;98220.22;10337662;28;20528;-59
2022/05/06 11:35:46;;;;;;;7.35;4.30;;;;;;;22.02;34.81;98210.91;10335640;28;20064;-59
2022/05/06 11:40:45;;;;;;;6.43;4.85;;;;;;;22.04;34.71;98202.91;10297495;28;20077;-59
2022/05/06 11:51:14;;;;;;;6.63;4.07;;;;;;;22.31;34.57;98208.88;10296284;28;20061;-59
2022/05/06 11:56:13;;;;;;;6.28;4.32;;;;;;;22.46;32.64;98199.41;10296129;28;20064;-59
2022/05/06 12:01:24;;;;;;;6.35;4.47;;;;;;;22.59;34.04;98195.34;10294645;28;20072;-58
2022/05/06 12:06:27;;;;;;;5.85;4.18;;;;;;;22.74;32.38;98184.16;10295460;28;20053;-58
2022/05/06 12:11:26;;;;;;;6.15;3.90;;;;;;;22.50;32.69;98190.44;10324220;28;20069;-59
2022/05/06 12:16:25;;;;;;;5.25;4.10;;;;;;;22.88;31.93;98178.25;10335088;28;20040;-59
2022/05/06 12:21:27;;;;;;;5.60;4.57;;;;;;;22.99;32.83;98175.97;10335496;28;20365;-59
2022/05/06 12:26:28;;;;;;;5.90;4.55;;;;;;;22.63;32.46;98167.84;10336604;28;20069;-59
2022/05/06 12:31:32;;;;;;;5.38;4.25;;;;;;;22.77;32.02;98162.84;10334775;28;20092;-59
2022/05/06 12:36:32;;;;;;;5.40;4.70;;;;;;;23.18;31.64;98157.47;10335016;28;20087;-59
2022/05/06 12:41:35;;;;;;;6.00;4.50;;;;;;;23.40;29.76;98144.09;10336000;28;20088;-59
2022/05/06 12:46:34;;;;;;;6.50;4.78;;;;;;;23.29;30.33;98140.25;10334217;28;20061;-58
2022/05/06 12:51:33;;;;;;;8.77;4.70;;;;;;;23.38;30.79;98129.22;10334971;28;20072;-58
2022/05/06 12:56:32;;;;;;;6.43;5.32;;;;;;;23.61;29.41;98130.81;10335224;28;20502;-58
2022/05/06 13:01:32;;;;;;;6.32;5.15;;;;;;;23.70;31.00;98122.44;10333348;28;20076;-59
2022/05/06 13:06:32;;;;;;;6.55;4.40;;;;;;;23.95;31.60;98105.31;10333546;28;20068;-58
2022/05/06 13:11:31;;;;;;;5.47;3.90;;;;;;;23.91;29.46;98094.00;10333739;28;20172;-58
2022/05/06 13:16:30;;;;;;;7.40;4.00;;;;;;;23.56;30.25;98099.25;10332910;28;20033;-58
2022/05/06 13:21:30;;;;;;;7.03;3.50;;;;;;;23.46;30.27;98097.91;10333387;28;20492;-58
2022/05/06 13:26:29;;;;;;;6.70;4.38;;;;;;;23.59;29.24;98098.22;10332665;28;20057;-58
2022/05/06 13:31:28;;;;;;;5.75;3.72;;;;;;;23.44;28.68;98087.41;10331575;28;20057;-58
2022/05/06 13:36:30;;;;;;;5.65;4.35;;;;;;;23.37;28.87;98083.34;10332384;28;20026;-58
2022/05/06 13:41:29;;;;;;;6.05;3.60;;;;;;;22.78;30.04;98060.50;10332762;28;20485;-58
2022/05/06 13:46:28;;;;;;;4.38;3.55;;;;;;;22.55;30.50;98072.06;10332444;28;20408;-58
2022/05/06 13:51:27;;;;;;;7.97;4.15;;;;;;;22.76;31.40;98076.47;10332097;28;20029;-58
2022/05/06 14:01:44;;;;;;;6.38;3.50;;;;;;;22.89;29.83;98060.88;10324070;28;20061;-58
2022/05/06 14:06:42;;;;;;;5.38;3.72;;;;;;;22.82;31.11;98064.72;10332089;28;20065;-58
2022/05/06 14:11:41;;;;;;;5.22;4.00;;;;;;;22.39;30.88;98064.84;10299302;28;20114;-59
2022/05/06 14:16:40;;;;;;;5.00;3.20;;;;;;;22.51;30.16;98055.50;10291362;28;20034;-58
2022/05/06 14:21:39;;;;;;;5.65;3.42;;;;;;;22.44;30.23;98048.78;10306711;28;20069;-58
2022/05/06 14:26:38;;;;;;;5.88;4.03;;;;;;;22.45;29.70;98049.63;10291070;28;20088;-58
2022/05/06 14:31:37;;;;;;;8.45;7.32;;;;;;;22.75;29.21;98047.41;10291757;28;20060;-58
2022/05/06 14:36:36;;;;;;;7.10;3.42;;;;;;;23.02;28.01;98042.63;10294769;28;20088;-58
2022/05/06 14:41:35;;;;;;;5.15;3.85;;;;;;;23.06;28.88;98041.56;10298414;28;20029;-58
2022/05/06 14:46:34;;;;;;;4.47;3.70;;;;;;;23.23;28.38;98035.44;10298955;28;20471;-58
2022/05/06 14:51:34;;;;;;;3.78;3.22;;;;;;;23.13;29.42;98037.69;10298037;28;20064;-58
2022/05/06 14:56:33;;;;;;;4.32;3.20;;;;;;;22.93;29.72;98024.56;10298095;28;20515;-58
2022/05/06 15:01:34;;;;;;;5.25;3.28;;;;;;;22.27;29.05;98020.44;10298190;28;20496;-58
2022/05/06 15:06:33;;;;;;;7.18;3.65;;;;;;;21.69;31.74;98022.91;10298641;28;20061;-58
2022/05/06 15:11:32;;;;;;;5.93;3.50;;;;;;;21.10;32.57;98027.88;10329500;28;20045;-59
2022/05/06 15:16:31;;;;;;;6.40;3.08;;;;;;;20.81;33.69;98022.84;10338272;28;20414;-58
2022/05/06 15:21:30;;;;;;;7.28;4.05;;;;;;;20.60;33.99;98032.41;10337475;28;20442;-58
2022/05/06 15:26:29;;;;;;;5.53;4.00;;;;;;;20.42;35.14;98032.19;10338396;28;20112;-58
2022/05/06 15:31:29;;;;;;;6.47;3.55;;;;;;;20.27;34.94;98033.56;10338120;28;20063;-58
2022/05/06 15:36:28;;;;;;;5.95;3.45;;;;;;;20.21;35.27;98039.06;10337844;28;20072;-59
2022/05/06 15:41:27;;;;;;;4.93;3.55;;;;;;;20.26;35.46;98031.84;10336804;28;20122;-58
2022/05/06 15:46:26;;;;;;;6.00;3.33;;;;;;;20.17;35.44;98034.81;10337490;28;20033;-58
2022/05/06 15:51:25;;;;;;;5.03;3.45;;;;;;;20.17;34.88;98032.16;10336522;28;20030;-58
2022/05/06 15:56:24;;;;;;;5.32;3.47;;;;;;;20.04;35.53;98026.44;10336385;28;20034;-58
2022/05/06 16:01:25;;;;;;;7.57;4.65;;;;;;;20.00;35.85;98034.50;10336656;28;20064;-58
2022/05/06 16:06:24;;;;;;;6.13;4.18;;;;;;;19.74;36.10;98044.16;10336568;28;20089;-58
2022/05/06 16:11:23;;;;;;;4.82;3.13;;;;;;;19.48;36.45;98031.81;10335610;28;20064;-58
2022/05/06 16:16:22;;;;;;;9.00;4.25;;;;;;;19.54;36.73;98038.69;10336073;28;20060;-58
2022/05/06 16:21:22;;;;;;;7.95;3.70;;;;;;;19.57;36.81;98030.72;10335270;28;20037;-58
2022/05/06 16:26:22;;;;;;;3.67;2.80;;;;;;;19.18;36.02;98033.66;10335345;28;20053;-58
2022/05/06 16:31:24;;;;;;;5.07;3.50;;;;;;;18.97;36.19;98036.06;10335774;28;20088;-58
2022/05/06 16:41:40;;;;;;;6.43;3.53;;;;;;;18.89;37.22;98043.31;10294301;28;20065;-58
2022/05/06 16:46:39;;;;;;;5.65;3.35;;;;;;;18.76;37.46;98053.34;10292458;28;20022;-58
2022/05/06 16:51:38;;;;;;;5.53;3.40;;;;;;;18.70;37.81;98057.91;10332668;28;20072;-58
2022/05/06 16:56:37;;;;;;;6.18;3.53;;;;;;;18.48;38.37;98062.88;10334136;28;20079;-58
2022/05/06 17:01:36;;;;;;;6.88;3.53;;;;;;;18.33;38.49;98064.16;10333271;28;20141;-58
2022/05/06 17:06:35;;;;;;;8.10;4.32;;;;;;;18.13;38.50;98062.94;10334386;28;20091;-58
2022/05/06 17:11:34;;;;;;;5.30;3.20;;;;;;;17.86;38.74;98074.16;10302861;28;20547;-57
2022/05/06 17:16:34;;;;;;;5.78;3.55;;;;;;;17.77;39.10;98075.25;10292986;28;20061;-58
2022/05/06 17:21:33;;;;;;;7.82;4.50;;;;;;;17.59;39.18;98079.16;10292646;28;20065;-58
2022/05/06 17:26:31;;;;;;;8.00;4.20;;;;;;;17.36;39.63;98087.56;10296710;28;20096;-58
2022/05/06 17:31:35;;;;;;;15.15;6.90;;;;;;;17.18;39.60;98091.47;10292375;28;20068;-58
2022/05/06 17:36:34;;;;;;;11.43;5.32;;;;;;;16.92;40.19;98085.00;10292243;28;20469;-58
2022/05/06 17:41:33;;;;;;;8.65;5.40;;;;;;;16.87;40.66;98107.00;10291446;28;20073;-58
2022/05/06 17:46:34;;;;;;;7.93;4.68;;;;;;;16.63;41.45;98097.81;10292071;28;20080;-57
2022/05/06 17:51:35;;;;;;;9.85;5.72;;;;;;;16.43;42.21;98106.94;10321024;28;20555;-58
2022/05/06 17:56:35;;;;;;;16.73;8.38;;;;;;;16.29;43.34;98114.19;10331885;28;20065;-58
2022/05/06 18:01:34;;;;;;;17.90;7.88;;;;;;;15.95;43.60;98117.41;10331964;28;20075;-58
2022/05/06 18:06:33;;;;;;;;;;;;;;;15.85;43.67;98118.44;10332853;28;20021;-58
2022/05/06 18:11:32;;;;;;;10.60;5.30;;;;;;;15.88;44.32;98128.88;10327763;28;20328;-58
2022/05/06 18:16:31;;;;;;;;;;;;;;;15.85;45.41;98136.75;10332250;28;20072;-58
2022/05/06 18:21:30;;;;;;;7.65;5.22;;;;;;;15.71;46.60;98130.84;10332347;28;20422;-58
2022/05/06 18:26:29;;;;;;;10.35;5.22;;;;;;;15.50;47.12;98130.28;10331402;28;20484;-57
2022/05/06 18:36:45;;;;;;;8.23;5.90;;;;;;;15.15;47.74;98147.31;10331363;28;20002;-58
2022/05/06 18:41:45;;;;;;;;;;;;;;;15.00;48.10;98152.75;10331760;28;20136;-58
2022/05/06 18:46:43;;;;;;;73.20;44.00;;;;;;;14.81;48.71;98147.75;10331424;28;19944;-58
2022/05/06 18:51:42;;;;;;;33.65;21.48;;;;;;;14.60;49.56;98138.38;10331311;28;20120;-58
2022/05/06 18:56:41;;;;;;;17.70;9.38;;;;;;;14.33;50.85;98141.25;10330732;28;20084;-58
2022/05/06 19:01:40;;;;;;;14.00;8.23;;;;;;;14.31;51.11;98154.34;10330386;28;20072;-58
2022/05/06 19:06:39;;;;;;;;;;;;;;;14.18;52.39;98161.41;10332044;28;20045;-58
2022/05/06 19:11:39;;;;;;;11.45;6.35;;;;;;;14.04;53.03;98157.19;10330159;28;19915;-58
2022/05/06 19:16:38;;;;;;;9.40;5.85;;;;;;;13.86;53.19;98159.06;10330210;28;20603;-58
2022/05/06 19:26:55;;;;;;;10.63;7.45;;;;;;;13.65;54.90;98165.28;10338007;28;20061;-58
2022/05/06 19:31:54;;;;;;;9.90;7.07;;;;;;;13.47;56.37;98160.16;10337354;28;20049;-58
2022/05/06 19:36:53;;;;;;;11.77;7.80;;;;;;;13.34;56.46;98169.81;10337511;28;20049;-58
2022/05/06 19:41:52;;;;;;;16.27;7.95;;;;;;;13.19;57.36;98165.56;10337664;28;20095;-58
2022/05/06 19:46:51;;;;;;;11.02;6.75;;;;;;;13.00;58.04;98164.78;10337453;28;20112;-58
2022/05/06 19:57:08;;;;;;;9.52;6.72;;;;;;;12.87;59.04;98173.50;10336923;28;20069;-58
2022/05/06 20:02:07;;;;;;;9.15;6.03;;;;;;;12.77;59.60;98183.09;10336129;28;20488;-58
2022/05/06 20:07:07;;;;;;;10.63;7.22;;;;;;;12.63;60.46;98174.44;10336483;28;20068;-58
2022/05/06 20:12:06;;;;;;;11.60;7.60;;;;;;;12.55;60.96;98177.03;10336183;28;20064;-58
2022/05/06 20:17:05;;;;;;;12.00;7.72;;;;;;;12.50;60.77;98178.78;10335381;28;20065;-58
2022/05/06 20:22:04;;;;;;;11.20;7.10;;;;;;;12.43;62.15;98180.53;10335614;28;20033;-58
2022/05/06 20:27:04;;;;;;;10.43;7.47;;;;;;;12.35;62.70;98174.50;10335335;28;20505;-58
2022/05/06 20:32:04;;;;;;;9.77;6.22;;;;;;;12.32;62.36;98179.69;10334885;28;20088;-58
2022/05/06 20:37:04;;;;;;;10.20;6.57;;;;;;;12.29;62.95;98188.34;10334756;28;20069;-58
2022/05/06 20:42:03;;;;;;;11.60;6.95;;;;;;;12.20;63.54;98190.94;10335241;28;20080;-58
2022/05/06 20:47:03;;;;;;;16.15;12.15;;;;;;;12.06;64.37;98197.88;10335121;28;20048;-58
2022/05/06 20:52:02;;;;;;;14.35;9.30;;;;;;;11.97;64.58;98193.56;10334528;28;20060;-58
2022/05/06 21:02:18;;;;;;;17.50;11.13;;;;;;;11.89;65.88;98197.88;10334590;28;19966;-58
2022/05/06 21:07:18;;;;;;;16.55;12.52;;;;;;;11.73;66.75;98196.97;10333377;28;20100;-58
2022/05/06 21:17:36;;;;;;;14.20;9.40;;;;;;;11.55;68.70;98194.34;10334244;28;20065;-58
2022/05/06 21:22:35;;;;;;;17.30;10.27;;;;;;;11.42;68.98;98193.47;10333850;28;20065;-58
2022/05/06 21:27:34;;;;;;;13.00;8.75;;;;;;;11.32;69.20;98196.91;10333019;28;20035;-58
2022/05/06 21:32:33;;;;;;;14.00;8.20;;;;;;;11.22;69.29;98190.78;10332342;28;20057;-58
2022/05/06 21:37:32;;;;;;;14.02;8.18;;;;;;;11.26;69.26;98187.34;10333313;28;20069;-58
2022/05/06 21:42:31;;;;;;;11.75;7.40;;;;;;;11.23;69.66;98192.53;10333425;28;20152;-58
2022/05/06 21:47:30;;;;;;;;;;;;;;;11.18;69.50;98189.06;10332545;28;20069;-58
2022/05/06 21:52:29;;;;;;;14.98;8.63;;;;;;;11.17;70.47;98184.72;10332539;28;19978;-59
2022/05/06 21:57:28;;;;;;;18.10;9.50;;;;;;;11.11;70.88;98182.97;10331931;28;20034;-58
2022/05/06 22:02:28;;;;;;;15.63;7.75;;;;;;;11.02;71.50;98183.81;10332126;28;20041;-59
2022/05/06 22:07:28;;;;;;;12.68;7.43;;;;;;;10.62;71.19;98118.69;10331509;28;20508;-58
2022/05/06 22:12:27;;;;;;;19.13;8.65;;;;;;;10.97;72.04;98179.47;10330197;28;20068;-58
2022/05/06 22:17:27;;;;;;;14.10;8.70;;;;;;;10.91;71.83;98179.44;10328097;28;20033;-58
2022/05/06 22:22:26;;;;;;;14.00;8.63;;;;;;;10.70;72.43;98154.19;10329264;28;20444;-59
2022/05/06 22:27:25;;;;;;;18.48;10.65;;;;;;;10.58;73.27;98161.06;10329564;28;20548;-58
2022/05/06 22:32:24;;;;;;;20.80;11.63;;;;;;;10.56;74.25;98178.34;10331370;28;20081;-58
2022/05/06 22:37:23;;;;;;;18.30;11.40;;;;;;;10.47;75.53;98177.41;10331023;28;20033;-58
2022/05/06 22:47:39;;;;;;;20.67;12.40;;;;;;;10.26;75.10;98145.31;10331998;28;20723;-58
2022/05/06 22:52:38;;;;;;;20.92;11.32;;;;;;;10.35;75.17;98162.66;10330915;28;20423;-58
2022/05/06 22:57:37;;;;;;;13.93;9.43;;;;;;;10.31;75.54;98166.97;10333174;28;20099;-58
2022/05/06 23:02:36;;;;;;;13.98;8.43;;;;;;;10.12;75.82;98144.34;10339124;28;20579;-58
2022/05/06 23:07:35;;;;;;;13.45;8.85;;;;;;;10.07;76.48;98169.38;10338309;28;20480;-58
2022/05/06 23:12:34;;;;;;;13.45;8.95;;;;;;;9.95;77.57;98167.53;10337576;28;20064;-58
2022/05/06 23:17:33;;;;;;;15.25;10.35;;;;;;;9.83;77.15;98163.13;10338255;28;20116;-58
2022/05/06 23:22:32;;;;;;;19.67;11.70;;;;;;;9.69;78.22;98160.41;10337408;28;20034;-58
2022/05/06 23:27:31;;;;;;;18.70;10.57;;;;;;;9.60;78.44;98156.88;10337554;28;20116;-58
2022/05/06 23:32:30;;;;;;;18.75;11.45;;;;;;;9.50;79.16;98150.75;10337331;28;20053;-58
2022/05/06 23:37:29;;;;;;;22.17;12.73;;;;;;;9.41;79.30;98164.47;10337428;28;20042;-58
2022/05/06 23:42:28;;;;;;;18.30;11.85;;;;;;;9.27;79.53;98151.34;10336980;28;20033;-58
2022/05/06 23:47:29;;;;;;;;;;;;;;;9.17;80.25;98146.94;10337619;28;20172;-58
2022/05/06 23:52:28;;;;;;;18.00;11.30;;;;;;;9.14;80.14;98149.50;10336475;28;19952;-58
2022/05/06 23:57:27;;;;;;;19.45;12.68;;;;;;;9.07;80.22;98137.34;10336690;28;20073;-58
